Nearby METAR Reports - 80 Mile Radius
Meteorological Terminal Air Report (METAR)


KBWI - Balto/Wash Intl Airport, Maryland
Distance from station: S 5mi, 8km
Updated: Sat, 08-May-2021 7:54pm EDT
Few Clouds
Few Clouds
 Wind from WNW
Wind: WNW 8 mph , 13 km/h
Temperature: 54°F , 12°C
Dew Point: 34°F , 1°C
Humidity: 47%
Barometer: 30.01 inHg , 1016.3 hPa
Clouds: Few Clouds
Visibility: 10 miles , 16 km
Cloud details: Few Clouds 6000 ft
Few Clouds 7500 ft
2021/05/08 23:54 KBWI 082354Z 30007KT 10SM FEW060 FEW075 12/01 A3001 RMK AO2 SLP163 60005 T01220011 10150 20089 53023
KFME - Fort Meade/Tipton AAF, Maryland
Distance from station: SSW 11mi, 18km
Updated: Sat, 08-May-2021 8:15pm EDT
Clear
Clear
 Wind from WNW
Wind: WNW 3 mph , 6 km/h
Temperature: 50°F , 10°C
Dew Point: 37°F , 3°C
Humidity: 62%
Barometer: 30.06 inHg , 1017.9 hPa
Clouds: Clear
Visibility: 10 miles , 16 km
2021/05/09 00:15 KFME 090015Z AUTO 30003KT 10SM CLR 10/03 A3006 RMK AO1
KMTN - Balto/Martin State Airport, Maryland
Distance from station: ENE 16mi, 26km
Updated: Sat, 08-May-2021 7:54pm EDT
Few Clouds
Few Clouds
 Wind from WNW
Wind: WNW 10 mph , 17 km/h
Temperature: 54°F , 12°C
Dew Point: 37°F , 3°C
Humidity: 54%
Barometer: 30.02 inHg , 1016.6 hPa
Clouds: Few Clouds
Visibility: 10 miles , 16 km
Cloud details: Few Clouds 5000 ft
2021/05/08 23:54 KMTN 082354Z 29009KT 10SM FEW050 12/03 A3002
 
KCGS - College Park Airport, Maryland
Distance from station: SSW 21mi, 34km
Updated: Sat, 08-May-2021 8:15pm EDT
Partly Cloudy
Partly Cloudy
 Wind from NNW
Wind: NNW 5 mph , 7 km/h
Temperature: 54°F , 12°C
Dew Point: 32°F , 0°C
Humidity: 44%
Barometer: 30.04 inHg , 1017.3 hPa
Clouds: Partly Cloudy
Visibility: 10 miles , 16 km
Cloud details: Partly Cloudy 7000 ft
2021/05/09 00:15 KCGS 090015Z AUTO 33004KT 10SM SCT070 12/00 A3004 RMK AO1 T01201003
KNAK - Annapolis/Naval Academy, Maryland
Distance from station: SE 21mi, 34km
Updated: Sat, 08-May-2021 7:54pm EDT
Clear
Clear
 Wind from WNW
Wind: WNW 10 mph , 17 km/h, Gust: 23 mph , 37 km/h
Temperature: 57°F , 14°C
Dew Point: 36°F , 2°C
Humidity: 44%
Barometer: 30.01 inHg , 1016.3 hPa
Clouds: Clear
Visibility: 10 miles , 16 km
2021/05/08 23:54 KNAK 082354Z AUTO 30009G20KT 10SM CLR 14/02 A3001 RMK AO2 SLP164 60001 T01390022 10150 20094 53021 $
KGAI - Gaithersburg/Montgomery Co Airpark, Maryland
Distance from station: W 26mi, 41km
Updated: Sat, 08-May-2021 7:56pm EDT
Mostly Cloudy
Mostly Cloudy
 Wind from NW
Wind: NW 6 mph , 9 km/h
Temperature: 52°F , 11°C
Dew Point: 36°F , 2°C
Humidity: 54%
Barometer: 30.04 inHg , 1017.3 hPa
Clouds: Mostly Cloudy
Visibility: 10 miles , 16 km
Cloud details: Mostly Cloudy 8000 ft
2021/05/08 23:56 KGAI 082356Z AUTO 32005KT 10SM BKN080 11/02 A3004 RMK AO2 SLP187 60009 T01110017 10150 20072 53026
 
KW29 - Stevensville/Bay Bridge Airport, Maryland
Distance from station: SE 26mi, 42km
Updated: Sun, 28-Mar-2021 8:55am EDT
NOT Current
Nearby thunderstorm, Rain, Mist, Overcast
Nearby thunderstorm, Rain, Mist, Overcast
 Wind from ESE
Wind: ESE 6 mph , 9 km/h
Temperature: 57°F , 14°C
Barometer: 29.84 inHg , 1010.5 hPa
Summary: Nearby thunderstorm, Rain, Mist
Clouds: Overcast
Visibility: 2 miles , 3 km
Cloud details: Overcast 300 ft
2021/03/28 12:55 KW29 281255Z AUTO 12005KT 2SM VCTSRA BR OVC003 14/ A2984 RMK AO2 LTG DSNT S AND W
KDMW - Carroll Co Regional Airport, Maryland
Distance from station: NNW 30mi, 48km
Updated: Sat, 08-May-2021 8:15pm EDT
Clear
Clear
 Wind from NW
Wind: NW 9 mph , 15 km/h
Temperature: 54°F , 12°C
Dew Point: 37°F , 3°C
Humidity: 54%
Barometer: 30.02 inHg , 1016.6 hPa
Clouds: Clear
Visibility: 10 miles , 16 km
2021/05/09 00:15 KDMW 090015Z AUTO 31008KT 10SM CLR 12/03 A3002 RMK AO2 LTG DSNT N AND E
KADW - Andrews AFB, Maryland
Distance from station: SSW 30mi, 49km
Updated: Sat, 08-May-2021 7:56pm EDT
Few Clouds
Few Clouds
 Wind from W
Wind: W 6 mph , 9 km/h
Temperature: 55°F , 13°C
Dew Point: 34°F , 1°C
Humidity: 44%
Barometer: 30.01 inHg , 1016.3 hPa
Clouds: Few Clouds
Visibility: 10 miles , 16 km
Cloud details: Few Clouds 7000 ft
2021/05/08 23:56 KADW 082356Z AUTO 28005KT 10SM FEW070 13/01 A3001 RMK AO2 SLP170 60000 T01310008 10150 20122 52022 $
 
KAPG - Aberdeen/Phillip AAF, Maryland
Distance from station: ENE 32mi, 52km
Updated: Sat, 08-May-2021 7:58pm EDT
Mostly Cloudy
Mostly Cloudy
 Wind from NNW
Wind: NNW 3 mph , 6 km/h
Temperature: 52°F , 11°C
Dew Point: 41°F , 5°C
Humidity: 67%
Barometer: 30.00 inHg , 1015.9 hPa
Clouds: Mostly Cloudy
Visibility: 9 miles , 14 km
Cloud details: Partly Cloudy 5000 ft
Mostly Cloudy 7000 ft
2021/05/08 23:58 KAPG 082358Z AUTO 34003KT 9SM SCT050 BKN070 11/05 A3000 RMK AO2 SLP162 60000 T01130045 10141 20072 52027
KDCA - Washington/Natl Airport, Washington D.C.
Distance from station: SW 32mi, 52km
Updated: Sat, 08-May-2021 7:52pm EDT
Partly Cloudy
Partly Cloudy
 Wind from NW
Wind: NW 15 mph , 24 km/h, Gust: 22 mph , 35 km/h
Temperature: 57°F , 14°C
Dew Point: 34°F , 1°C
Humidity: 41%
Barometer: 30.03 inHg , 1016.9 hPa
Clouds: Partly Cloudy
Visibility: 10 miles , 16 km
Cloud details: Partly Cloudy 6500 ft
2021/05/08 23:52 KDCA 082352Z 32013G19KT 10SM SCT065 14/01 A3003 RMK AO2 SLP170 60001 T01440006 10167 20117 53018
KFDK - Frederick Municipal Airport, Maryland
Distance from station: WNW 38mi, 61km
Updated: Sat, 08-May-2021 7:47pm EDT
Clear
Clear
 Wind from NNW
Wind: NNW 10 mph , 17 km/h
Temperature: 55°F , 13°C
Dew Point: 36°F , 2°C
Humidity: 47%
Barometer: 30.03 inHg , 1016.9 hPa
Clouds: Clear
Visibility: 10 miles , 16 km
2021/05/08 23:47 KFDK 082347Z 33009KT 10SM CLR 13/02 A3003
 
KDAA - Fort Belvoir/Davison AAF, Virginia
Distance from station: SW 44mi, 71km
Updated: Sat, 08-May-2021 7:56pm EDT
Clear
Clear
 Wind from WNW
Wind: WNW 6 mph , 9 km/h
Temperature: 57°F , 14°C
Dew Point: 34°F , 1°C
Humidity: 41%
Barometer: 30.03 inHg , 1016.9 hPa
Clouds: Clear
Visibility: 10 miles , 16 km
2021/05/08 23:56 KDAA 082356Z AUTO 30005KT 10SM CLR 14/01 A3003 RMK AO2 SLP172 60000 T01400006 10176 20140 52022 $
KESN - Easton/Newnam Field Airport, Maryland
Distance from station: SE 45mi, 73km
Updated: Sat, 08-May-2021 7:45pm EDT
Partly Cloudy
Partly Cloudy
 Wind from NW
Wind: NW 15 mph , 24 km/h, Gust: 22 mph , 35 km/h
Temperature: 55°F , 13°C
Dew Point: 37°F , 3°C
Humidity: 51%
Barometer: 30.04 inHg , 1017.3 hPa
Clouds: Partly Cloudy
Visibility: 10 miles , 16 km
Cloud details: Partly Cloudy 7500 ft
2021/05/08 23:45 KESN 082345Z 32013G19KT 10SM SCT075 13/03 A3004
KIAD - Wash DC/Dulles Intl, Virginia
Distance from station: WSW 45mi, 73km
Updated: Sat, 08-May-2021 7:52pm EDT
Partly Cloudy
Partly Cloudy
 Wind from WNW
Wind: WNW 12 mph , 19 km/h
Temperature: 55°F , 13°C
Dew Point: 34°F , 1°C
Humidity: 44%
Barometer: 30.03 inHg , 1016.9 hPa
Clouds: Partly Cloudy
Visibility: 10 miles , 16 km
Cloud details: Partly Cloudy 8000 ft
Partly Cloudy 25000 ft
2021/05/08 23:52 KIAD 082352Z 30010KT 10SM SCT080 SCT250 13/01 A3003 RMK AO2 SLP168 60001 T01330011 10167 20117 53019
 
KJYO - Leesburg/Godfrey Field, Virginia
Distance from station: WSW 48mi, 77km
Updated: Sat, 08-May-2021 8:15pm EDT
Overcast
Overcast
 Wind from NNW
Wind: NNW 8 mph , 13 km/h
Temperature: 54°F , 12°C
Dew Point: 36°F , 2°C
Humidity: 51%
Barometer: 30.05 inHg , 1017.6 hPa
Clouds: Overcast
Visibility: 10 miles , 16 km
Cloud details: Overcast 6500 ft
2021/05/09 00:15 KJYO 090015Z AUTO 34007KT 10SM OVC065 12/02 A3005 RMK AO2 LTG DSNT E
KTHV - York Airport, Pennsylvania
Distance from station: NNW 48mi, 77km
Updated: Sat, 08-May-2021 7:53pm EDT
Few Clouds
Few Clouds
 Wind from NW
Wind: NW 7 mph , 11 km/h
Temperature: 52°F , 11°C
Dew Point: 37°F , 3°C
Humidity: 58%
Barometer: 30.00 inHg , 1015.9 hPa
Clouds: Few Clouds
Visibility: 10 miles , 16 km
Cloud details: Few Clouds 7000 ft
2021/05/08 23:53 KTHV 082353Z AUTO 32006KT 10SM FEW070 11/03 A3000 RMK AO2 RAE14 SLP163 P0000 60000 T01060028 10139 20106 51024
KRSP - Naval Support Fac Thurmont, Maryland, USA
Distance from station: NW 50mi, 81km
Updated: Sat, 08-May-2021 7:54pm EDT
Clear
Clear
 Wind from WNW
Wind: WNW 9 mph , 15 km/h, Gust: 25 mph , 41 km/h
Temperature: 46°F , 8°C
Wind Chill: 41°F , 5°C
Dew Point: 32°F , 0°C
Humidity: 57%
Barometer: 29.97 inHg , 1014.9 hPa
Clouds: Clear
Visibility: 10 miles , 16 km
2021/05/08 23:54 KRSP 082354Z AUTO 29008G22KT 260V010 10SM CLR 08/00 A2997 RMK AO2 PK WND 30028/2256 SLP163 6//// T00780000 10106 20056 53014 TSNO PNO $
 
KRYT - Fountain Dale Airport, Pennsylvania
Distance from station: NW 52mi, 84km
Updated: Mon, 13-Nov-2017 7:53am EST
NOT Current
Mist, Overcast
Mist, Overcast
 Wind from calm
Wind: Calm
Temperature: 37°F , 3°C
Dew Point: 34°F , 1°C
Humidity: 87%
Barometer: 30.31 inHg , 1026.4 hPa
Summary: Mist
Clouds: Overcast
Visibility: 5 miles , 8 km
Cloud details: Overcast 700 ft
2017/11/13 12:53 KRYT 131253Z AUTO 00000KT 5SM BR OVC007 03/01 A3031 RMK AO2 SLP275 T00280011 TSNO $
KHEF - Manassas Municipal Airport, Virginia
Distance from station: SW 57mi, 91km
Updated: Sat, 08-May-2021 7:56pm EDT
Clear
Clear
 Wind from NW
Wind: NW 13 mph , 20 km/h, Gust: 17 mph , 28 km/h
Temperature: 55°F , 13°C
Dew Point: 32°F , 0°C
Humidity: 41%
Barometer: 30.04 inHg , 1017.3 hPa
Clouds: Clear
Visibility: 10 miles , 16 km
2021/05/08 23:56 KHEF 082356Z 32011G15KT 10SM CLR 13/00 A3004 RMK AO2 SLP180 T01280000 10178 20128 53023
KNYG - Quantico Marine Corps Air Fac, Virginia
Distance from station: SSW 60mi, 96km
Updated: Sat, 08-May-2021 7:56pm EDT
Clear
Clear
 Wind from NW
Wind: NW 10 mph , 17 km/h
Temperature: 57°F , 14°C
Dew Point: 32°F , 0°C
Humidity: 39%
Barometer: 30.04 inHg , 1017.3 hPa
Clouds: Clear
Visibility: 10 miles , 16 km
2021/05/08 23:56 KNYG 082356Z AUTO 32009KT 10SM CLR 14/00 A3004 RMK AO2 SLP173 T01440000 10189 20144 51024
 
KCGE - Cambridge-Dorchester Reg Airport, Maryland
Distance from station: SE 60mi, 97km
Updated: Sat, 08-May-2021 8:15pm EDT
Clear
Clear
 Wind from varies
Wind: varies 6 mph , 9 km/h
Temperature: 54°F , 12°C
Dew Point: 41°F , 5°C
Humidity: 63%
Barometer: 30.02 inHg , 1016.6 hPa
Clouds: Clear
Visibility: 10 miles , 16 km
2021/05/09 00:15 KCGE 090015Z AUTO VRB05KT 10SM CLR 12/05 A3002 RMK A01
K2W6 - St Marys Co Reg Airport, Maryland
Distance from station: SSE 64mi, 103km
Updated: Thu, 06-May-2021 12:35am EDT
NOT Current
Clear
Clear
 Wind from WNW
Wind: WNW 6 mph , 9 km/h
Temperature: 55°F , 13°C
Dew Point: 39°F , 4°C
Humidity: 55%
Barometer: 29.97 inHg , 1014.9 hPa
Clouds: Clear
Visibility: 10 miles , 16 km
2021/05/06 04:35 K2W6 060435Z AUTO 30005KT 10SM CLR 13/04 A2997 RMK AO1
KHGR - Hagerstown Reg Airport, Maryland
Distance from station: WNW 64mi, 103km
Updated: Sat, 08-May-2021 7:53pm EDT
Partly Cloudy
Partly Cloudy
 Wind from NW
Wind: NW 9 mph , 15 km/h
Temperature: 52°F , 11°C
Dew Point: 36°F , 2°C
Humidity: 54%
Barometer: 30.03 inHg , 1016.9 hPa
Clouds: Partly Cloudy
Visibility: 10 miles , 16 km
Cloud details: Few Clouds 5500 ft
Partly Cloudy 7000 ft
2021/05/08 23:53 KHGR 082353Z 32008KT 10SM FEW055 SCT070 11/02 A3003 RMK AO2 SLP182 60002 T01110017 10144 20094 53020
 
KLNS - Lancaster Airport, Pennsylvania
Distance from station: NNE 64mi, 104km
Updated: Sat, 08-May-2021 7:53pm EDT
Few Clouds
Few Clouds
 Wind from NNW
Wind: NNW 7 mph , 11 km/h
Temperature: 50°F , 10°C
Wind Chill: 47°F , 8°C
Dew Point: 41°F , 5°C
Humidity: 71%
Barometer: 29.99 inHg , 1015.6 hPa
Clouds: Few Clouds
Visibility: 10 miles , 16 km
Cloud details: Few Clouds 4500 ft
Few Clouds 10000 ft
2021/05/08 23:53 KLNS 082353Z 33006KT 10SM FEW045 FEW100 10/05 A2999 RMK AO2 SLP156 60009 T01000050 10150 20078 51026
KILG - New Castle Airport, Wilmington, Delaware
Distance from station: ENE 66mi, 106km
Updated: Sat, 08-May-2021 7:51pm EDT
Overcast
Overcast
 Wind from NW
Wind: NW 14 mph , 22 km/h
Temperature: 50°F , 10°C
Wind Chill: 45°F , 7°C
Dew Point: 39°F , 4°C
Humidity: 67%
Barometer: 29.98 inHg , 1015.2 hPa
Clouds: Overcast
Visibility: 10 miles , 16 km
Cloud details: Few Clouds 6500 ft
Partly Cloudy 7500 ft
Overcast 9500 ft
2021/05/08 23:51 KILG 082351Z 31012KT 10SM FEW065 SCT075 OVC095 10/04 A2998 RMK AO2 PK WND 30030/2312 RAB13E43 SLP153 P0000 60004 T01000039 10133 20089 53021 $
KDOV - Dover Air Force Base, Delaware
Distance from station: E 66mi, 107km
Updated: Sat, 08-May-2021 7:56pm EDT
Few Clouds
Few Clouds
 Wind from WSW
Wind: WSW 8 mph , 13 km/h
Temperature: 50°F , 10°C
Wind Chill: 47°F , 8°C
Dew Point: 43°F , 6°C
Humidity: 76%
Barometer: 29.97 inHg , 1014.9 hPa
Clouds: Few Clouds
Visibility: 10 miles , 16 km
Cloud details: Few Clouds 8000 ft
2021/05/08 23:56 KDOV 082356Z AUTO 25007KT 10SM FEW080 10/06 A2997 RMK AO2 SLP153 60005 T01010055 10150 20083 52019 PWINO $
 
KMDT - Harrisburg Intl Airport, Middletown, Pennsylvania
Distance from station: N 67mi, 107km
Updated: Sat, 08-May-2021 7:56pm EDT
Few Clouds
Few Clouds
 Wind from NW
Wind: NW 16 mph , 26 km/h, Gust: 24 mph , 39 km/h
Temperature: 54°F , 12°C
Dew Point: 36°F , 2°C
Humidity: 51%
Barometer: 29.99 inHg , 1015.6 hPa
Clouds: Few Clouds
Visibility: 10 miles , 16 km
Cloud details: Few Clouds 6000 ft
2021/05/08 23:56 KMDT 082356Z 31014G21KT 10SM FEW060 12/02 A2999 RMK AO2 PK WND 30026/2310 SLP159 60003 T01170022 10144 20089 51026 $
KMQS - Chester Co Carlson Airport, Coatesville, Pennsylvania
Distance from station: NE 68mi, 109km
Updated: Sat, 08-May-2021 8:15pm EDT
Clear
Clear
 Wind from NW
Wind: NW 12 mph , 19 km/h
Temperature: 46°F , 8°C
Wind Chill: 40°F , 4°C
Dew Point: 43°F , 6°C
Humidity: 87%
Barometer: 30.00 inHg , 1015.9 hPa
Clouds: Clear
Visibility: 10 miles , 16 km
2021/05/09 00:15 KMQS 090015Z AUTO 32010KT 10SM CLR 08/06 A3000 RMK AO2
KCXY - Capital City Airport, Harrisburg, Pennsylvania
Distance from station: N 68mi, 110km
Updated: Sat, 08-May-2021 7:56pm EDT
Clear
Clear
 Wind from NNW
Wind: NNW 10 mph , 17 km/h
Temperature: 54°F , 12°C
Dew Point: 36°F , 2°C
Humidity: 51%
Barometer: 30.00 inHg , 1015.9 hPa
Clouds: Clear
Visibility: 10 miles , 16 km
2021/05/08 23:56 KCXY 082356Z 33009KT 10SM CLR 12/02 A3000 RMK AO2 SLP163 60002 T01170022 10144 20094 $
 
KNHK - Patuxent River NAS, Maryland
Distance from station: SE 69mi, 111km
Updated: Sat, 08-May-2021 7:52pm EDT
Clear
Clear
 Wind from NNW
Wind: NNW 18 mph , 30 km/h
Temperature: 57°F , 14°C
Dew Point: 39°F , 4°C
Humidity: 51%
Barometer: 30.01 inHg , 1016.3 hPa
Clouds: Clear
Visibility: 10 miles , 16 km
2021/05/08 23:52 KNHK 082352Z AUTO 33016KT 10SM CLR 14/04 A3001 RMK AO2 SLP161 60001 T01440044 10178 20139 51023 $
KMRB - Eastern WV Reg Airport/Shepherd Field, Martinsburg, West Virginia
Distance from station: W 70mi, 112km
Updated: Sat, 08-May-2021 7:53pm EDT
Few Clouds
Few Clouds
 Wind from NW
Wind: NW 16 mph , 26 km/h, Gust: 22 mph , 35 km/h
Temperature: 54°F , 12°C
Dew Point: 28°F , -2°C
Humidity: 38%
Barometer: 30.02 inHg , 1016.6 hPa
Clouds: Few Clouds
Visibility: 10 miles , 16 km
Cloud details: Few Clouds 7500 ft
2021/05/08 23:53 KMRB 082353Z AUTO 31014G19KT 10SM FEW075 12/M02 A3002 RMK AO2 SLP169 60001 T01221022 10150 20100 53022
KHWY - Warrenton-Fauquier Airport, Warrenton, Virginia
Distance from station: SW 71mi, 114km
Updated: Sat, 08-May-2021 8:15pm EDT
Clear
Clear
 Wind from NW
Wind: NW 5 mph , 7 km/h
Temperature: 52°F , 11°C
Dew Point: 30°F , -1°C
Humidity: 44%
Barometer: 30.04 inHg , 1017.3 hPa
Clouds: Clear
Visibility: 10 miles , 16 km
2021/05/09 00:15 KHWY 090015Z AUTO 32004KT 10SM CLR 11/M01 A3004 RMK AO2 LTG DSNT E T01111007
 
KRMN - Stafford Regional Airport, Virginia
Distance from station: SW 71mi, 114km
Updated: Sat, 08-May-2021 8:15pm EDT
Clear
Clear
 Wind from NNW
Wind: NNW 5 mph , 7 km/h
Temperature: 55°F , 13°C
Dew Point: 16°F , -9°C
Humidity: 21%
Barometer: 30.08 inHg , 1018.6 hPa
Clouds: Clear
Visibility: 10 miles , 16 km
2021/05/09 00:15 KRMN 090015Z AUTO 33004KT 10SM CLR 13/M09 A3008 RMK AO2 LTG DSNT E T01271089
KNUI - Webster Naval, St Inigoes, Maryland
Distance from station: S 76mi, 123km
Updated: Sat, 08-May-2021 7:53pm EDT
Clear
Clear
 Wind from NW
Wind: NW 7 mph , 11 km/h
Temperature: 61°F , 16°C
Dew Point: 36°F , 2°C
Humidity: 39%
Barometer: 30.00 inHg , 1015.9 hPa
Clouds: Clear
Visibility: 10 miles , 16 km
2021/05/08 23:53 KNUI 082353Z AUTO 31006KT 10SM CLR 16/02 A3000 RMK AO2 SLP160 T01560017 10194 20156 53023
KEZF - Fredericksburg/Shan, Virginia
Distance from station: SSW 78mi, 126km
Updated: Sat, 08-May-2021 8:15pm EDT
Clear
Clear
 Wind from NNW
Wind: NNW 5 mph , 7 km/h
Temperature: 57°F , 14°C
Dew Point: 28°F , -2°C
Humidity: 33%
Barometer: 30.03 inHg , 1016.9 hPa
Clouds: Clear
Visibility: 10 miles , 16 km
2021/05/09 00:15 KEZF 090015Z AUTO 33004KT 10SM CLR 14/M02 A3003 RMK AO2 T01421021
 
KOKV - Winchester Regional Airport, Virginia
Distance from station: W 78mi, 126km
Updated: Sat, 08-May-2021 8:15pm EDT
Mostly Cloudy
Mostly Cloudy
 Wind from NW
Wind: NW 9 mph , 15 km/h
Temperature: 50°F , 10°C
Wind Chill: 46°F , 8°C
Dew Point: 32°F , 0°C
Humidity: 50%
Barometer: 30.03 inHg , 1016.9 hPa
Clouds: Mostly Cloudy
Visibility: 10 miles , 16 km
Cloud details: Mostly Cloudy 6500 ft
2021/05/09 00:15 KOKV 090015Z AUTO 31008KT 10SM BKN065 10/00 A3003 RMK AO2
KCJR - Culpeper Regional Airport, Virginia
Distance from station: SW 79mi, 128km
Updated: Sat, 08-May-2021 8:15pm EDT
Clear
Clear
 Wind from calm
Wind: Calm
Temperature: 52°F , 11°C
Dew Point: 32°F , 0°C
Humidity: 47%
Barometer: 30.06 inHg , 1017.9 hPa
Clouds: Clear
Visibility: 10 miles , 16 km
2021/05/09 00:15 KCJR 090015Z AUTO 00000KT 10SM CLR 11/00 A3006 RMK AO2 T01071002
canadians